Time;durP1;ratioP1;P1;durP2;ratioP2;P2;SDS_P1;SDS_P2;PMS_P1;PMS_P2;Temp;Humidity;BMP_temperature;BMP_pressure;BME280_temperature;BME280_humidity;BME280_pressure;Samples;Min_cycle;Max_cycle;Signal;HPM_P1;HPM_P2
2023/10/20 00:01:59;;;;;;;;;;;;;;;8.20;33.70;101274.41;5083695;28;19912;-67
2023/10/20 00:04:24;;;;;;;;;;;;;;;8.14;33.64;101267.03;5094707;28;19924;-66
2023/10/20 00:06:49;;;;;;;;;;;;;;;8.10;33.59;101273.69;5095375;28;19995;-66
2023/10/20 00:09:14;;;;;;;;;;;;;;;8.17;33.57;101266.69;5112021;28;19912;-67
2023/10/20 00:11:41;;;;;;;;;;;;;;;8.21;33.56;101265.41;5095344;28;19924;-67
2023/10/20 00:14:06;;;;;;;;;;;;;;;8.27;33.45;101272.78;5095790;28;19916;-67
2023/10/20 00:16:31;;;;;;;;;;;;;;;8.28;33.07;101263.78;5099605;28;20687;-66
2023/10/20 00:18:57;;;;;;;;;;;;;;;8.27;33.52;101264.75;5094939;28;19923;-66
2023/10/20 00:21:24;;;;;;;;;;;;;;;8.23;33.07;101268.75;5095796;28;19999;-66
2023/10/20 00:23:49;;;;;;;;;;;;;;;8.16;32.89;101264.19;5095634;28;20024;-66
2023/10/20 00:26:14;;;;;;;;;;;;;;;8.18;33.03;101267.56;5096022;28;20440;-66
2023/10/20 00:28:40;;;;;;;;;;;;;;;8.16;33.44;101267.69;5094174;28;20006;-66
2023/10/20 00:31:05;;;;;;;;;;;;;;;8.10;33.31;101279.88;5077351;28;19912;-66
2023/10/20 00:33:30;;;;;;;;;;;;;;;7.99;33.60;101274.78;5076383;28;19920;-66
2023/10/20 00:35:55;;;;;;;;;;;;;;;7.83;33.41;101277.34;5108645;28;20222;-66
2023/10/20 00:38:21;;;;;;;;;;;;;;;7.86;33.88;101282.38;5094616;28;20106;-66
2023/10/20 00:40:46;;;;;;;;;;;;;;;7.81;33.67;101284.69;5095135;28;19923;-66
2023/10/20 00:43:12;;;;;;;;;;;;;;;7.84;34.13;101290.56;5094249;28;20648;-67
2023/10/20 00:45:39;;;;;;;;;;;;;;;7.90;33.61;101283.75;5095477;28;20327;-67
2023/10/20 00:48:06;;;;;;;;;;;;;;;8.02;33.22;101287.81;5075966;28;19916;-67
2023/10/20 00:50:33;;;;;;;;;;;;;;;8.06;33.77;101299.06;5095546;28;19935;-67
2023/10/20 00:52:59;;;;;;;;;;;;;;;8.18;33.28;101297.81;5104519;28;19915;-66
2023/10/20 00:55:24;;;;;;;;;;;;;;;8.25;33.35;101284.66;5094680;28;19922;-66
2023/10/20 00:57:49;;;;;;;;;;;;;;;8.23;33.37;101297.34;5111812;28;19912;-66
2023/10/20 01:00:15;;;;;;;;;;;;;;;8.31;33.01;101300.91;5095137;28;20361;-66
2023/10/20 01:02:41;;;;;;;;;;;;;;;8.33;33.21;101282.84;5093664;28;19916;-66
2023/10/20 01:05:06;;;;;;;;;;;;;;;8.41;33.19;101278.53;5096081;28;19934;-65
2023/10/20 01:07:32;;;;;;;;;;;;;;;8.40;32.73;101280.38;5095213;28;19912;-65
2023/10/20 01:10:04;;;;;;;;;;;;;;;8.39;32.68;101280.53;5076531;28;19969;-66
2023/10/20 01:12:30;;;;;;;;;;;;;;;8.41;32.91;101262.47;5094633;28;19916;-66
2023/10/20 01:14:55;;;;;;;;;;;;;;;8.32;32.77;101273.16;5094914;28;20337;-66
2023/10/20 01:17:20;;;;;;;;;;;;;;;8.37;32.61;101274.50;5095631;28;19963;-66
2023/10/20 01:19:46;;;;;;;;;;;;;;;8.37;32.58;101263.81;5094097;28;20061;-66
2023/10/20 01:22:11;;;;;;;;;;;;;;;8.38;33.13;101265.50;5094427;28;19924;-66
2023/10/20 01:24:36;;;;;;;;;;;;;;;8.38;32.67;101276.19;5094614;28;19915;-66
2023/10/20 01:27:02;;;;;;;;;;;;;;;8.41;32.95;101267.84;5093918;28;19916;-66
2023/10/20 01:29:27;;;;;;;;;;;;;;;8.31;33.10;101266.09;5094062;28;19938;-66
2023/10/20 01:31:52;;;;;;;;;;;;;;;8.31;32.96;101265.28;5093502;28;20345;-66
2023/10/20 01:34:18;;;;;;;;;;;;;;;8.38;33.06;101273.53;5096804;28;19920;-66
2023/10/20 01:36:43;;;;;;;;;;;;;;;8.35;32.88;101253.25;5103624;28;19913;-66
2023/10/20 01:39:08;;;;;;;;;;;;;;;8.39;32.84;101251.94;5093528;28;20029;-66
2023/10/20 01:41:34;;;;;;;;;;;;;;;8.39;33.02;101257.28;5093005;28;19970;-66
2023/10/20 01:43:59;;;;;;;;;;;;;;;8.40;33.15;101255.47;5094362;28;19969;-66
2023/10/20 01:46:24;;;;;;;;;;;;;;;8.44;32.99;101246.13;5076582;28;19912;-66
2023/10/20 01:48:49;;;;;;;;;;;;;;;8.41;32.58;101249.94;5092907;28;20396;-66
2023/10/20 01:51:15;;;;;;;;;;;;;;;8.41;32.95;101233.88;5093789;28;19916;-67
2023/10/20 01:53:40;;;;;;;;;;;;;;;8.41;32.70;101233.88;5093425;28;20006;-66
2023/10/20 01:56:05;;;;;;;;;;;;;;;8.42;32.53;101232.09;5102213;28;19951;-66
2023/10/20 01:58:31;;;;;;;;;;;;;;;8.44;32.85;101228.22;5093345;28;19928;-67
2023/10/20 02:00:57;;;;;;;;;;;;;;;8.36;33.19;101228.19;5093651;28;19916;-66
2023/10/20 02:03:23;;;;;;;;;;;;;;;8.38;33.03;101236.88;5093060;28;20359;-66
2023/10/20 02:05:48;;;;;;;;;;;;;;;8.44;32.85;101232.75;5109759;28;19916;-66
2023/10/20 02:08:16;;;;;;;;;;;;;;;8.44;33.05;101241.63;5094157;28;19947;-67
2023/10/20 02:10:45;;;;;;;;;;;;;;;8.42;32.97;101240.13;5092727;28;19995;-67
2023/10/20 02:13:10;;;;;;;;;;;;;;;8.43;33.01;101242.63;5094289;28;19918;-67
2023/10/20 02:15:36;;;;;;;;;;;;;;;8.33;33.01;101240.03;5093643;28;19917;-67
2023/10/20 02:18:01;;;;;;;;;;;;;;;8.30;33.08;101243.03;5095913;28;19916;-67
2023/10/20 02:20:27;;;;;;;;;;;;;;;8.27;33.20;101242.53;5093287;28;19954;-67
2023/10/20 02:22:52;;;;;;;;;;;;;;;8.31;32.88;101250.06;5092962;28;19969;-67
2023/10/20 02:25:18;;;;;;;;;;;;;;;8.29;32.80;101248.53;5093762;28;19969;-67
2023/10/20 02:27:44;;;;;;;;;;;;;;;8.26;33.56;101259.56;5093579;28;19993;-67
2023/10/20 02:30:12;;;;;;;;;;;;;;;8.19;33.10;101258.50;5093437;28;19981;-67
2023/10/20 02:32:37;;;;;;;;;;;;;;;8.23;33.16;101260.72;5091583;28;19915;-68
2023/10/20 02:35:03;;;;;;;;;;;;;;;8.25;32.86;101263.25;5095477;28;19992;-67
2023/10/20 02:37:28;;;;;;;;;;;;;;;8.24;32.86;101273.09;5093305;28;19923;-67
2023/10/20 02:39:53;;;;;;;;;;;;;;;8.20;33.27;101265.56;5092674;28;20494;-68
2023/10/20 02:42:19;;;;;;;;;;;;;;;8.24;33.04;101258.88;5092736;28;20292;-68
2023/10/20 02:44:44;;;;;;;;;;;;;;;8.22;33.42;101248.34;5093369;28;19923;-68
2023/10/20 02:47:09;;;;;;;;;;;;;;;8.26;33.07;101265.75;5092350;28;19916;-67
2023/10/20 02:49:35;;;;;;;;;;;;;;;8.23;33.61;101259.91;5092888;28;19916;-67
2023/10/20 02:52:00;;;;;;;;;;;;;;;8.24;32.94;101266.91;5092917;28;19962;-67
2023/10/20 02:54:26;;;;;;;;;;;;;;;8.21;33.31;101277.91;5092530;28;19919;-67
2023/10/20 02:56:51;;;;;;;;;;;;;;;8.25;32.98;101264.06;5101790;28;19912;-67
2023/10/20 02:59:17;;;;;;;;;;;;;;;8.36;33.25;101264.78;5093519;28;19920;-67
2023/10/20 03:01:43;;;;;;;;;;;;;;;8.26;32.87;101260.38;5090573;28;19920;-67
2023/10/20 03:04:09;;;;;;;;;;;;;;;8.34;33.21;101278.34;5092129;28;20338;-67
2023/10/20 03:06:36;;;;;;;;;;;;;;;8.39;33.22;101281.38;5078583;28;20369;-67
2023/10/20 03:09:01;;;;;;;;;;;;;;;8.39;32.98;101269.84;5096998;28;19912;-67
2023/10/20 03:11:26;;;;;;;;;;;;;;;8.38;33.14;101273.53;5095710;28;19920;-67
2023/10/20 03:13:52;;;;;;;;;;;;;;;8.40;33.11;101271.53;5097007;28;19958;-67
2023/10/20 03:16:17;;;;;;;;;;;;;;;8.40;33.20;101267.00;5081037;28;19916;-67
2023/10/20 03:18:42;;;;;;;;;;;;;;;8.33;33.32;101268.63;5096318;28;20278;-67
2023/10/20 03:21:08;;;;;;;;;;;;;;;8.37;33.16;101266.47;5095035;28;19919;-67
2023/10/20 03:23:33;;;;;;;;;;;;;;;8.37;33.07;101272.66;5096727;28;19923;-67
2023/10/20 03:25:58;;;;;;;;;;;;;;;8.37;33.46;101266.47;5097128;28;19918;-67
2023/10/20 03:28:24;;;;;;;;;;;;;;;8.38;32.85;101271.69;5097082;28;20533;-67
2023/10/20 03:30:50;;;;;;;;;;;;;;;8.38;32.76;101273.53;5095452;28;19916;-67
2023/10/20 03:33:16;;;;;;;;;;;;;;;8.36;33.49;101278.16;5096970;28;19916;-67
2023/10/20 03:35:42;;;;;;;;;;;;;;;8.32;33.23;101275.84;5109161;28;20432;-67
2023/10/20 03:38:07;;;;;;;;;;;;;;;8.30;32.96;101279.66;5095714;28;19955;-67
2023/10/20 03:40:42;;;;;;;;;;;;;;;8.25;33.39;101274.78;5095994;28;19926;-67
2023/10/20 03:43:08;;;;;;;;;;;;;;;8.22;33.12;101274.25;5091097;28;20294;-67
2023/10/20 03:45:41;;;;;;;;;;;;;;;8.23;33.30;101268.75;5096343;28;19912;-67
2023/10/20 03:48:08;;;;;;;;;;;;;;;8.12;33.29;101269.03;5096913;28;19957;-68
2023/10/20 03:50:36;;;;;;;;;;;;;;;8.04;33.55;101267.13;5095753;28;19916;-68
2023/10/20 03:53:01;;;;;;;;;;;;;;;7.94;34.01;101261.88;5096477;28;19923;-68
2023/10/20 03:55:27;;;;;;;;;;;;;;;7.88;33.65;101264.34;5102287;28;19912;-68
2023/10/20 03:57:52;;;;;;;;;;;;;;;7.86;33.77;101266.34;5098623;28;19912;-68
2023/10/20 04:00:17;;;;;;;;;;;;;;;7.83;33.51;101266.66;5095713;28;19924;-68
2023/10/20 04:02:44;;;;;;;;;;;;;;;7.83;33.88;101272.81;5095834;28;20412;-68
2023/10/20 04:05:09;;;;;;;;;;;;;;;7.71;33.93;101266.91;5096185;28;20296;-68
2023/10/20 04:07:37;;;;;;;;;;;;;;;7.72;33.67;101270.41;5116329;28;19912;-68
2023/10/20 04:10:02;;;;;;;;;;;;;;;7.67;33.58;101267.34;5096394;28;19935;-69
2023/10/20 04:12:27;;;;;;;;;;;;;;;7.55;33.73;101264.09;5102664;28;19928;-68
2023/10/20 04:14:53;;;;;;;;;;;;;;;7.50;34.07;101253.00;5096048;28;19916;-68
2023/10/20 04:17:19;;;;;;;;;;;;;;;7.49;34.00;101259.38;5097323;28;19951;-68
2023/10/20 04:19:45;;;;;;;;;;;;;;;7.47;34.73;101245.31;5096401;28;19920;-68
2023/10/20 04:22:13;;;;;;;;;;;;;;;7.40;34.35;101242.41;5078404;28;19919;-68
2023/10/20 04:24:38;;;;;;;;;;;;;;;7.37;34.04;101242.69;5095826;28;19998;-67
2023/10/20 04:27:04;;;;;;;;;;;;;;;7.33;34.22;101244.84;5096019;28;19920;-67
2023/10/20 04:29:35;;;;;;;;;;;;;;;7.37;34.31;101242.69;5096185;28;20364;-67
2023/10/20 04:58:54;;;;;;;;;;;;;;;6.91;34.77;101257.94;5091869;28;20007;-67
2023/10/20 05:01:39;;;;;;;;;;;;;;;6.85;35.03;101261.22;5093404;28;20010;-67
2023/10/20 05:04:15;;;;;;;;;;;;;;;6.90;35.63;101250.94;5091491;28;20353;-67
2023/10/20 05:06:43;;;;;;;;;;;;;;;6.93;35.40;101253.31;5094925;28;19957;-67
2023/10/20 05:09:12;;;;;;;;;;;;;;;6.82;34.84;101241.00;5093527;28;19931;-67
2023/10/20 05:11:38;;;;;;;;;;;;;;;6.85;35.10;101239.84;5084999;28;20277;-67
2023/10/20 05:14:03;;;;;;;;;;;;;;;6.84;35.57;101225.69;5093627;28;19937;-67
2023/10/20 05:16:32;;;;;;;;;;;;;;;6.81;35.03;101230.47;5094122;28;19916;-67
2023/10/20 05:19:00;;;;;;;;;;;;;;;6.85;34.56;101237.19;5075710;28;19928;-67
2023/10/20 05:21:25;;;;;;;;;;;;;;;6.81;34.91;101219.78;5093650;28;19951;-67
2023/10/20 05:23:51;;;;;;;;;;;;;;;6.72;35.23;101217.03;5094427;28;19912;-67
2023/10/20 05:26:16;;;;;;;;;;;;;;;6.73;35.96;101226.72;5093216;28;20357;-67
2023/10/20 05:28:41;;;;;;;;;;;;;;;6.73;35.38;101218.72;5091902;28;19931;-67
2023/10/20 05:31:07;;;;;;;;;;;;;;;6.72;35.17;101216.19;5094530;28;19919;-66
2023/10/20 05:33:32;;;;;;;;;;;;;;;6.72;35.25;101224.19;5093123;28;19916;-67
2023/10/20 05:36:04;;;;;;;;;;;;;;;6.67;35.53;101224.66;5095000;28;19947;-66
2023/10/20 05:38:29;;;;;;;;;;;;;;;6.68;36.09;101230.81;5091424;28;20006;-66
2023/10/20 05:40:56;;;;;;;;;;;;;;;6.67;35.89;101224.66;5094444;28;20405;-67
2023/10/20 05:43:23;;;;;;;;;;;;;;;6.64;35.96;101227.63;5093563;28;19931;-66
2023/10/20 05:45:48;;;;;;;;;;;;;;;6.67;35.78;101227.31;5093317;28;19928;-66
2023/10/20 05:48:13;;;;;;;;;;;;;;;6.63;35.70;101223.28;5075378;28;19920;-66
2023/10/20 05:50:39;;;;;;;;;;;;;;;6.63;36.43;101230.41;5092910;28;20425;-66
2023/10/20 05:53:04;;;;;;;;;;;;;;;6.62;35.81;101221.59;5093267;28;19955;-66
2023/10/20 05:55:30;;;;;;;;;;;;;;;6.60;36.23;101220.91;5098898;28;20213;-66
2023/10/20 05:57:56;;;;;;;;;;;;;;;6.62;35.79;101226.09;5093237;28;19987;-66
2023/10/20 06:00:21;;;;;;;;;;;;;;;6.57;35.60;101221.19;5092781;28;20357;-67
2023/10/20 06:02:47;;;;;;;;;;;;;;;6.70;36.37;101223.50;5092541;28;19923;-67
2023/10/20 06:05:13;;;;;;;;;;;;;;;6.68;36.02;101212.97;5092968;28;20373;-66
2023/10/20 06:07:40;;;;;;;;;;;;;;;6.61;35.96;101214.56;5092006;28;19916;-67
2023/10/20 06:10:05;;;;;;;;;;;;;;;6.58;36.47;101214.88;5108347;28;19920;-67
2023/10/20 06:12:30;;;;;;;;;;;;;;;6.64;35.47;101221.44;5093399;28;20260;-67
2023/10/20 06:14:56;;;;;;;;;;;;;;;6.70;35.64;101228.84;5095182;28;20357;-67
2023/10/20 06:17:23;;;;;;;;;;;;;;;6.71;35.83;101227.88;5086891;28;19912;-67
2023/10/20 06:19:48;;;;;;;;;;;;;;;6.71;36.05;101241.22;5101274;28;19931;-66
2023/10/20 06:22:13;;;;;;;;;;;;;;;6.67;35.06;101235.31;5095815;28;19912;-67
2023/10/20 06:24:38;;;;;;;;;;;;;;;6.69;35.82;101249.38;5094309;28;20296;-67
2023/10/20 06:27:04;;;;;;;;;;;;;;;6.78;35.49;101248.47;5093822;28;19918;-67
2023/10/20 06:29:43;;;;;;;;;;;;;;;6.86;35.91;101246.88;5092023;28;19923;-67
2023/10/20 06:32:25;;;;;;;;;;;;;;;6.88;35.76;101251.06;5093834;28;19912;-66
2023/10/20 06:35:00;;;;;;;;;;;;;;;6.96;35.06;101266.34;5094377;28;19997;-68
2023/10/20 06:37:35;;;;;;;;;;;;;;;7.04;35.65;101260.25;5093081;28;19916;-68
2023/10/20 06:40:00;;;;;;;;;;;;;;;7.06;34.86;101282.31;5092455;28;20006;-66
2023/10/20 06:42:25;;;;;;;;;;;;;;;6.96;34.82;101269.00;5103834;28;19996;-66
2023/10/20 06:44:51;;;;;;;;;;;;;;;7.05;34.44;101261.94;5090713;28;19923;-66
2023/10/20 06:47:18;;;;;;;;;;;;;;;7.02;35.07;101251.53;5092651;28;20349;-66
2023/10/20 06:49:43;;;;;;;;;;;;;;;7.00;34.69;101261.53;5090768;28;20003;-66
2023/10/20 06:52:08;;;;;;;;;;;;;;;6.99;34.75;101260.72;5093394;28;19991;-66
2023/10/20 06:54:34;;;;;;;;;;;;;;;7.03;34.96;101261.25;5091109;28;19951;-66
2023/10/20 06:56:59;;;;;;;;;;;;;;;7.02;35.27;101243.53;5100452;28;19916;-67
2023/10/20 06:59:24;;;;;;;;;;;;;;;7.05;35.35;101257.44;5107928;28;19925;-66
2023/10/20 07:01:50;;;;;;;;;;;;;;;7.08;34.63;101262.47;5091774;28;20399;-66
2023/10/20 07:04:16;;;;;;;;;;;;;;;7.06;34.77;101253.78;5093444;28;19916;-66
2023/10/20 07:06:42;;;;;;;;;;;;;;;7.01;35.68;101263.22;5093463;28;19912;-66
2023/10/20 07:09:13;;;;;;;;;;;;;;;7.06;34.96;101260.97;5093107;28;19920;-66
2023/10/20 07:11:42;;;;;;;;;;;;;;;7.00;34.95;101256.19;5093042;28;19924;-66
2023/10/20 07:14:07;;;;;;;;;;;;;;;7.04;35.19;101263.78;5093271;28;19912;-66
2023/10/20 07:16:33;;;;;;;;;;;;;;;7.10;34.98;101259.66;5099063;28;20406;-66
2023/10/20 07:19:02;;;;;;;;;;;;;;;7.13;34.82;101257.53;5101544;28;19919;-66
2023/10/20 07:21:28;;;;;;;;;;;;;;;7.18;35.20;101260.56;5097031;28;19977;-66
2023/10/20 07:23:53;;;;;;;;;;;;;;;7.18;34.73;101260.56;5093047;28;20377;-67
2023/10/20 07:26:18;;;;;;;;;;;;;;;7.22;34.41;101263.78;5093254;28;19919;-66
2023/10/20 07:28:44;;;;;;;;;;;;;;;7.27;35.16;101248.13;5100031;28;19915;-65
2023/10/20 07:31:10;;;;;;;;;;;;;;;7.23;35.11;101249.44;5096353;28;19916;-65
2023/10/20 07:33:36;;;;;;;;;;;;;;;7.34;35.00;101254.53;5092880;28;20345;-66
2023/10/20 07:36:02;;;;;;;;;;;;;;;7.35;34.37;101245.56;5095525;28;19920;-65
2023/10/20 07:38:27;;;;;;;;;;;;;;;7.40;34.71;101261.13;5092243;28;19923;-65
2023/10/20 07:40:53;;;;;;;;;;;;;;;7.48;34.84;101258.50;5087942;28;19924;-65
2023/10/20 07:43:19;;;;;;;;;;;;;;;7.53;34.39;101256.22;5073995;28;20340;-65
2023/10/20 07:45:45;;;;;;;;;;;;;;;7.52;33.98;101254.56;5093735;28;20336;-67
2023/10/20 07:48:11;;;;;;;;;;;;;;;7.57;34.71;101254.91;5095727;28;19912;-67
2023/10/20 07:50:36;;;;;;;;;;;;;;;7.50;34.56;101253.00;5093106;28;19923;-65
2023/10/20 07:53:02;;;;;;;;;;;;;;;7.60;34.09;101269.81;5099136;28;19912;-66
2023/10/20 07:55:27;;;;;;;;;;;;;;;7.71;34.09;101244.69;5094226;28;19916;-66
2023/10/20 07:57:55;;;;;;;;;;;;;;;7.66;33.86;101242.44;5098303;28;19927;-65
2023/10/20 08:00:20;;;;;;;;;;;;;;;7.61;34.25;101257.28;5079027;28;19916;-65
2023/10/20 08:02:45;;;;;;;;;;;;;;;7.66;34.57;101252.31;5097142;28;20387;-66
2023/10/20 08:05:10;;;;;;;;;;;;;;;7.69;34.15;101262.69;5078380;28;20333;-66
2023/10/20 08:07:38;;;;;;;;;;;;;;;7.67;34.30;101262.00;5096329;28;20390;-65
2023/10/20 08:10:04;;;;;;;;;;;;;;;7.75;34.63;101257.56;5101485;28;20010;-65
2023/10/20 08:12:32;;;;;;;;;;;;;;;7.86;34.18;101251.13;5097662;28;19976;-64
2023/10/20 08:14:58;;;;;;;;;;;;;;;7.87;33.98;101255.47;5096256;28;19916;-65
2023/10/20 08:17:23;;;;;;;;;;;;;;;7.92;33.88;101249.66;5095094;28;20012;-64
2023/10/20 08:19:49;;;;;;;;;;;;;;;7.98;34.15;101246.34;5096341;28;19916;-64
2023/10/20 08:22:14;;;;;;;;;;;;;;;8.06;34.12;101256.25;5096481;28;19977;-64
2023/10/20 08:24:40;;;;;;;;;;;;;;;8.02;34.12;101249.56;5096178;28;19927;-64
2023/10/20 08:27:05;;;;;;;;;;;;;;;8.05;33.96;101251.91;5101839;28;19959;-64
2023/10/20 08:29:31;;;;;;;;;;;;;;;8.12;33.96;101244.94;5112239;28;19919;-64
2023/10/20 08:31:56;;;;;;;;;;;;;;;8.19;33.50;101243.31;5095917;28;20313;-64
2023/10/20 08:34:22;;;;;;;;;;;;;;;8.21;33.68;101235.97;5099840;28;19962;-64
2023/10/20 08:36:47;;;;;;;;;;;;;;;8.22;33.50;101226.94;5104261;28;20276;-64
2023/10/20 08:39:13;;;;;;;;;;;;;;;8.29;33.56;101244.03;5095684;28;19966;-64
2023/10/20 08:41:40;;;;;;;;;;;;;;;8.39;33.53;101229.69;5095826;28;20321;-64
2023/10/20 08:44:05;;;;;;;;;;;;;;;8.47;33.70;101235.13;5083728;28;20002;-64
2023/10/20 08:46:31;;;;;;;;;;;;;;;8.55;33.40;101234.31;5115775;28;19995;-66
2023/10/20 08:48:57;;;;;;;;;;;;;;;8.52;33.70;101235.47;5102250;28;19915;-66
2023/10/20 08:51:23;;;;;;;;;;;;;;;8.54;33.60;101238.81;5097974;28;19966;-65
2023/10/20 08:53:48;;;;;;;;;;;;;;;8.62;33.40;101248.75;5095481;28;20338;-65
2023/10/20 08:56:14;;;;;;;;;;;;;;;8.70;33.32;101228.16;5103757;28;20285;-66
2023/10/20 08:58:39;;;;;;;;;;;;;;;8.74;33.03;101231.34;5092421;28;19938;-66
2023/10/20 09:01:08;;;;;;;;;;;;;;;8.82;33.09;101231.41;5094920;28;21533;-65
2023/10/20 09:03:48;;;;;;;;;;;;;;;8.90;32.73;101235.94;5094066;28;20002;-66
2023/10/20 09:06:16;;;;;;;;;;;;;;;8.90;32.60;101242.13;5095480;28;19959;-66
2023/10/20 09:08:50;;;;;;;;;;;;;;;8.84;32.62;101226.72;5100745;28;19924;-65
2023/10/20 09:11:15;;;;;;;;;;;;;;;8.97;32.69;101239.63;5100547;28;19920;-65
2023/10/20 09:13:41;;;;;;;;;;;;;;;9.00;32.72;101228.56;5099988;28;19920;-65
2023/10/20 09:16:08;;;;;;;;;;;;;;;9.15;32.65;101250.19;5078959;28;20015;-65
2023/10/20 09:18:47;;;;;;;;;;;;;;;9.19;32.17;101234.63;5101667;28;19919;-64
2023/10/20 09:21:13;;;;;;;;;;;;;;;9.27;32.17;101246.22;5099013;28;19968;-65
2023/10/20 09:23:39;;;;;;;;;;;;;;;9.30;32.20;101250.38;5108499;28;19920;-65
2023/10/20 09:26:04;;;;;;;;;;;;;;;9.39;32.17;101246.72;5106442;28;19970;-65
2023/10/20 09:28:29;;;;;;;;;;;;;;;9.36;32.17;101254.25;5104518;28;19963;-64
2023/10/20 09:30:55;;;;;;;;;;;;;;;9.40;32.05;101264.50;5094320;28;19923;-65
2023/10/20 09:33:21;;;;;;;;;;;;;;;9.46;31.73;101277.22;5095231;28;19916;-64
2023/10/20 09:35:46;;;;;;;;;;;;;;;9.43;32.10;101257.94;5103757;28;20296;-63
2023/10/20 09:38:12;;;;;;;;;;;;;;;9.50;31.71;101259.78;5091264;28;19987;-64
2023/10/20 09:40:45;;;;;;;;;;;;;;;9.41;31.78;101265.31;5092823;28;20030;-64
2023/10/20 09:43:19;;;;;;;;;;;;;;;9.47;31.92;101262.81;5093193;28;19959;-65
2023/10/20 09:45:46;;;;;;;;;;;;;;;9.65;31.72;101248.41;5091130;28;20400;-65
2023/10/20 09:48:19;;;;;;;;;;;;;;;9.68;31.78;101250.75;5093709;28;19916;-64
2023/10/20 09:50:46;;;;;;;;;;;;;;;9.95;31.78;101246.03;5093481;28;19954;-64
2023/10/20 09:53:13;;;;;;;;;;;;;;;10.05;31.28;101258.25;5094038;28;20296;-65
2023/10/20 09:55:40;;;;;;;;;;;;;;;10.18;31.45;101241.63;5091403;28;20372;-65
2023/10/20 09:58:05;;;;;;;;;;;;;;;10.24;31.01;101238.25;5091157;28;19916;-65
2023/10/20 10:00:31;;;;;;;;;;;;;;;10.33;30.96;101243.63;5092927;28;20548;-65
2023/10/20 10:02:58;;;;;;;;;;;;;;;10.43;31.18;101234.34;5092699;28;19976;-65
2023/10/20 10:05:23;;;;;;;;;;;;;;;10.50;30.91;101229.13;5093719;28;19916;-64
2023/10/20 10:08:01;;;;;;;;;;;;;;;10.77;30.43;101224.28;5093491;28;19923;-64
2023/10/20 10:10:26;;;;;;;;;;;;;;;10.71;30.49;101214.25;5091581;28;19999;-65
2023/10/20 10:13:00;;;;;;;;;;;;;;;10.79;30.56;101228.50;5086138;28;19955;-65
2023/10/20 10:15:34;;;;;;;;;;;;;;;10.89;29.68;101230.13;5092259;28;20296;-65
2023/10/20 10:18:05;;;;;;;;;;;;;;;10.98;30.02;101224.50;5094059;28;19998;-65
2023/10/20 10:20:30;;;;;;;;;;;;;;;11.00;29.99;101241.28;5093008;28;20292;-65
2023/10/20 10:23:16;;;;;;;;;;;;;;;10.94;29.59;101230.41;5079096;28;19916;-65
2023/10/20 10:25:46;;;;;;;;;;;;;;;11.19;29.50;101242.69;5102727;28;19926;-65
2023/10/20 10:28:13;;;;;;;;;;;;;;;11.23;29.80;101227.03;5100727;28;19916;-65
2023/10/20 10:30:39;;;;;;;;;;;;;;;11.33;29.63;101240.22;5108305;28;19926;-65
2023/10/20 10:33:06;;;;;;;;;;;;;;;11.48;29.12;101221.44;5089804;28;19987;-66
2023/10/20 10:35:31;;;;;;;;;;;;;;;11.69;29.17;101229.69;5088275;28;19916;-69
2023/10/20 10:37:57;;;;;;;;;;;;;;;12.00;29.46;101216.13;5056231;28;19924;-67
2023/10/20 10:40:25;;;;;;;;;;;;;;;12.18;28.51;101231.06;5093359;28;19916;-67
2023/10/20 10:42:51;;;;;;;;;;;;;;;12.12;28.67;101237.19;5093374;28;19966;-67
2023/10/20 10:45:40;;;;;;;;;;;;;;;12.28;28.10;101222.72;5108287;28;20289;-67
2023/10/20 10:48:05;;;;;;;;;;;;;;;12.31;27.78;101227.72;5092916;28;19995;-67
2023/10/20 10:50:30;;;;;;;;;;;;;;;12.26;28.01;101230.13;5093485;28;20008;-67
2023/10/20 10:52:55;;;;;;;;;;;;;;;12.29;28.86;101235.16;5093392;28;20389;-67
2023/10/20 10:55:21;;;;;;;;;;;;;;;12.43;28.43;101234.31;5098892;28;19912;-67
2023/10/20 10:57:46;;;;;;;;;;;;;;;12.40;28.45;101235.53;5096117;28;19912;-67
2023/10/20 11:00:15;;;;;;;;;;;;;;;12.50;27.80;101229.88;5093229;28;19917;-67
2023/10/20 11:02:41;;;;;;;;;;;;;;;12.53;28.17;101237.56;5092871;28;19935;-67
2023/10/20 11:05:06;;;;;;;;;;;;;;;12.54;28.46;101238.41;5093308;28;20284;-67
2023/10/20 11:07:32;;;;;;;;;;;;;;;12.45;27.91;101231.47;5093173;28;19973;-67
2023/10/20 11:09:57;;;;;;;;;;;;;;;12.39;27.76;101239.25;5092904;28;19992;-67
2023/10/20 11:12:23;;;;;;;;;;;;;;;12.40;27.93;101237.38;5093168;28;20270;-67
2023/10/20 11:14:50;;;;;;;;;;;;;;;12.69;28.27;101241.91;5093402;28;19958;-67
2023/10/20 11:17:15;;;;;;;;;;;;;;;12.82;27.83;101243.94;5102581;28;19951;-68
2023/10/20 11:19:40;;;;;;;;;;;;;;;12.84;27.74;101239.19;5113448;28;19970;-67
2023/10/20 11:22:13;;;;;;;;;;;;;;;12.88;27.03;101221.59;5110551;28;19916;-67
2023/10/20 11:24:39;;;;;;;;;;;;;;;12.77;28.09;101233.72;5113657;28;19916;-67
2023/10/20 11:27:05;;;;;;;;;;;;;;;12.79;27.29;101223.56;5098134;28;19915;-68
2023/10/20 11:29:31;;;;;;;;;;;;;;;12.88;27.76;101231.56;5110868;28;19916;-67
2023/10/20 11:32:00;;;;;;;;;;;;;;;13.02;27.15;101236.09;5096998;28;19920;-68
2023/10/20 11:34:26;;;;;;;;;;;;;;;13.21;26.99;101233.78;5097019;28;19912;-68
2023/10/20 11:36:51;;;;;;;;;;;;;;;13.31;27.09;101231.63;5096667;28;19920;-68
2023/10/20 11:39:17;;;;;;;;;;;;;;;13.22;27.46;101221.97;5112838;28;20011;-68
2023/10/20 11:41:42;;;;;;;;;;;;;;;13.18;26.99;101221.50;5097187;28;19919;-68
2023/10/20 11:44:08;;;;;;;;;;;;;;;13.01;26.47;101212.81;5097580;28;19915;-68
2023/10/20 11:46:33;;;;;;;;;;;;;;;13.00;26.79;101208.47;5111672;28;19987;-67
2023/10/20 11:48:59;;;;;;;;;;;;;;;12.97;26.93;101201.59;5117000;28;20006;-67
2023/10/20 11:51:24;;;;;;;;;;;;;;;13.02;27.56;101213.66;5117376;28;19919;-67
2023/10/20 11:53:49;;;;;;;;;;;;;;;13.05;27.26;101216.81;5116653;28;20436;-67
2023/10/20 11:56:15;;;;;;;;;;;;;;;13.24;27.79;101219.91;5111784;28;20399;-67
2023/10/20 11:58:40;;;;;;;;;;;;;;;13.28;26.76;101226.56;5078275;28;20215;-68
2023/10/20 12:01:06;;;;;;;;;;;;;;;13.42;27.87;101204.13;5083994;28;20017;-68
2023/10/20 12:03:31;;;;;;;;;;;;;;;13.31;26.84;101193.84;5091492;28;20291;-68
2023/10/20 12:05:57;;;;;;;;;;;;;;;13.30;27.33;101205.66;5075983;28;19919;-68
2023/10/20 12:08:23;;;;;;;;;;;;;;;13.21;26.70;101194.16;5075926;28;19913;-68
2023/10/20 12:10:48;;;;;;;;;;;;;;;13.15;26.85;101203.03;5079905;28;19930;-68
2023/10/20 12:13:13;;;;;;;;;;;;;;;13.24;26.78;101203.72;5095970;28;19912;-67
2023/10/20 12:15:38;;;;;;;;;;;;;;;13.22;27.42;101209.28;5096580;28;19920;-67
2023/10/20 12:18:10;;;;;;;;;;;;;;;13.27;27.14;101203.34;5098138;28;19961;-67
2023/10/20 12:20:35;;;;;;;;;;;;;;;13.24;26.48;101183.00;5097909;28;19972;-67
2023/10/20 12:23:01;;;;;;;;;;;;;;;13.20;26.64;101181.69;5116452;28;19915;-67
2023/10/20 12:25:33;;;;;;;;;;;;;;;13.16;27.11;101186.63;5116015;28;19919;-68
2023/10/20 12:27:59;;;;;;;;;;;;;;;13.08;27.16;101188.63;5097687;28;19915;-68
2023/10/20 12:30:26;;;;;;;;;;;;;;;13.15;27.13;101184.97;5083990;28;19916;-68
2023/10/20 12:32:51;;;;;;;;;;;;;;;13.27;27.20;101181.75;5094775;28;19958;-68
2023/10/20 12:35:17;;;;;;;;;;;;;;;13.26;26.92;101185.47;5096689;28;19947;-68
2023/10/20 12:37:42;;;;;;;;;;;;;;;13.65;27.53;101190.41;5094462;28;20002;-68
2023/10/20 12:40:08;;;;;;;;;;;;;;;13.77;26.80;101187.19;5096057;28;20392;-68
2023/10/20 12:42:35;;;;;;;;;;;;;;;13.86;26.33;101188.69;5095639;28;19981;-68
2023/10/20 12:45:01;;;;;;;;;;;;;;;14.11;26.45;101194.44;5102425;28;20424;-68
2023/10/20 12:47:27;;;;;;;;;;;;;;;14.47;26.36;101183.41;5115880;28;20002;-68
2023/10/20 12:49:55;;;;;;;;;;;;;;;14.54;25.36;101175.31;5097433;28;20280;-68
2023/10/20 12:52:21;;;;;;;;;;;;;;;14.86;25.45;101178.38;5080663;28;19911;-68
2023/10/20 12:54:46;;;;;;;;;;;;;;;14.95;25.26;101170.88;5111314;28;19960;-68
2023/10/20 12:57:13;;;;;;;;;;;;;;;14.82;24.71;101159.03;5097743;28;19912;-68
2023/10/20 12:59:38;;;;;;;;;;;;;;;14.70;25.28;101149.81;5095387;28;19920;-68
2023/10/20 13:02:04;;;;;;;;;;;;;;;14.75;25.55;101147.34;5095512;28;20266;-68
2023/10/20 13:04:30;;;;;;;;;;;;;;;14.83;25.48;101157.16;5076915;28;19912;-68
2023/10/20 13:06:55;;;;;;;;;;;;;;;14.56;25.07;101148.09;5095266;28;19912;-68